createdAt,value
2024-01-06T00:01:17.869Z,2.00
2024-01-06T00:03:45.155Z,2.00
2024-01-06T00:06:15.698Z,2.00
2024-01-06T00:08:43.416Z,2.00
2024-01-06T00:11:11.090Z,1.90
2024-01-06T00:13:38.234Z,1.90
2024-01-06T00:16:05.132Z,1.90
2024-01-06T00:18:32.428Z,1.90
2024-01-06T00:20:59.175Z,2.00
2024-01-06T00:23:26.273Z,2.00
2024-01-06T00:25:52.924Z,2.00
2024-01-06T00:28:19.581Z,2.00
2024-01-06T00:30:47.147Z,2.00
2024-01-06T00:33:14.162Z,2.00
2024-01-06T00:35:41.624Z,2.00
2024-01-06T00:38:08.735Z,2.00
2024-01-06T00:40:35.586Z,2.00
2024-01-06T00:43:02.731Z,2.10
2024-01-06T00:45:29.375Z,2.10
2024-01-06T00:47:56.573Z,2.10
2024-01-06T00:50:23.325Z,2.10
2024-01-06T00:52:53.760Z,2.10
2024-01-06T00:55:21.038Z,2.10
2024-01-06T00:57:47.798Z,2.20
2024-01-06T01:00:15.503Z,2.20
2024-01-06T01:02:42.292Z,2.20
2024-01-06T01:05:09.463Z,2.10
2024-01-06T01:07:36.436Z,2.20
2024-01-06T01:10:03.933Z,2.20
2024-01-06T01:12:31.069Z,2.20
2024-01-06T01:14:57.792Z,2.20
2024-01-06T01:17:25.807Z,2.20
2024-01-06T01:19:53.054Z,2.20
2024-01-06T01:22:21.013Z,2.20
2024-01-06T01:24:47.772Z,2.20
2024-01-06T01:27:15.011Z,2.20
2024-01-06T01:29:41.748Z,2.20
2024-01-06T01:32:09.222Z,2.20
2024-01-06T01:34:36.190Z,2.20
2024-01-06T01:37:03.012Z,2.20
2024-01-06T01:39:30.147Z,2.20
2024-01-06T01:41:57.559Z,2.20
2024-01-06T01:47:12.734Z,2.20
2024-01-06T01:49:39.967Z,2.20
2024-01-06T01:52:06.854Z,2.20
2024-01-06T01:54:34.002Z,2.10
2024-01-06T01:57:00.698Z,2.10
2024-01-06T01:59:27.408Z,2.20
2024-01-06T02:01:54.695Z,2.20
2024-01-06T02:04:21.804Z,2.10
2024-01-06T02:06:49.045Z,2.10
2024-01-06T02:09:17.027Z,2.10
2024-01-06T02:11:43.695Z,2.10
2024-01-06T02:14:10.772Z,2.10
2024-01-06T02:16:37.423Z,2.10
2024-01-06T02:19:04.585Z,2.00
2024-01-06T02:21:35.872Z,2.10
2024-01-06T02:24:03.150Z,2.00
2024-01-06T02:26:30.370Z,2.10
2024-01-06T02:28:57.081Z,2.10
2024-01-06T02:31:24.234Z,2.10
2024-01-06T02:33:51.015Z,2.10
2024-01-06T02:36:17.828Z,2.10
2024-01-06T02:38:44.603Z,2.10
2024-01-06T02:41:11.751Z,2.10
2024-01-06T02:43:38.415Z,2.10
2024-01-06T02:46:05.093Z,2.10
2024-01-06T02:48:32.440Z,2.20
2024-01-06T02:50:59.199Z,2.20
2024-01-06T02:53:26.775Z,2.30
2024-01-06T02:55:53.857Z,2.30
2024-01-06T02:58:20.551Z,2.30
2024-01-06T03:00:47.335Z,2.20
2024-01-06T03:03:14.649Z,2.20
2024-01-06T03:05:41.654Z,2.30
2024-01-06T03:08:08.408Z,2.30
2024-01-06T03:10:35.819Z,2.30
2024-01-06T03:13:02.931Z,2.30
2024-01-06T03:15:29.666Z,2.30
2024-01-06T03:17:56.407Z,2.30
2024-01-06T03:20:23.155Z,2.30
2024-01-06T03:22:50.579Z,2.40
2024-01-06T03:25:17.679Z,2.40
2024-01-06T03:27:44.850Z,2.40
2024-01-06T03:30:12.558Z,2.40
2024-01-06T03:32:39.836Z,2.40
2024-01-06T03:35:08.036Z,2.50
2024-01-06T03:37:35.224Z,2.50
2024-01-06T03:40:02.347Z,2.50
2024-01-06T03:42:29.540Z,2.60
2024-01-06T03:44:56.697Z,2.60
2024-01-06T03:47:23.449Z,2.60
2024-01-06T03:49:50.804Z,2.60
2024-01-06T03:52:18.070Z,2.60
2024-01-06T03:54:44.841Z,2.60
2024-01-06T03:57:11.586Z,2.60
2024-01-06T03:59:38.955Z,2.60
2024-01-06T04:02:05.609Z,2.60
2024-01-06T04:04:32.742Z,2.60
2024-01-06T04:06:59.490Z,2.70
2024-01-06T04:09:26.614Z,2.70
2024-01-06T04:11:53.298Z,2.70
2024-01-06T04:14:20.429Z,2.70
2024-01-06T04:16:47.791Z,2.80
2024-01-06T04:19:16.708Z,2.70
2024-01-06T04:21:43.474Z,2.80
2024-01-06T04:24:10.637Z,2.70
2024-01-06T04:26:37.379Z,2.70
2024-01-06T04:29:04.450Z,2.70
2024-01-06T04:31:31.767Z,2.70
2024-01-06T04:33:58.632Z,2.70
2024-01-06T04:36:25.841Z,2.60
2024-01-06T04:38:53.022Z,2.60
2024-01-06T04:41:20.214Z,2.60
2024-01-06T04:43:47.334Z,2.60
2024-01-06T04:46:14.224Z,2.60
2024-01-06T04:48:42.641Z,2.60
2024-01-06T04:51:11.885Z,2.60
2024-01-06T04:53:40.159Z,2.60
2024-01-06T04:56:07.412Z,2.70
2024-01-06T04:58:35.781Z,2.70
2024-01-06T05:01:04.006Z,2.70
2024-01-06T05:03:31.437Z,2.70
2024-01-06T05:05:58.641Z,2.70
2024-01-06T05:08:25.621Z,2.70
2024-01-06T05:10:54.479Z,2.80
2024-01-06T05:13:21.628Z,2.80
2024-01-06T05:15:48.422Z,2.80
2024-01-06T05:18:15.387Z,2.80
2024-01-06T05:20:42.577Z,2.80
2024-01-06T05:23:10.223Z,2.80
2024-01-06T05:25:36.881Z,2.80
2024-01-06T05:28:03.659Z,2.70
2024-01-06T05:30:30.845Z,2.70
2024-01-06T05:32:57.694Z,2.60
2024-01-06T05:35:25.332Z,2.50
2024-01-06T05:37:52.018Z,2.50
2024-01-06T05:40:19.128Z,2.40
2024-01-06T05:42:46.330Z,2.40
2024-01-06T05:45:16.453Z,2.40
2024-01-06T05:47:43.738Z,2.30
2024-01-06T05:50:11.773Z,2.30
2024-01-06T05:52:38.515Z,2.40
2024-01-06T05:55:06.371Z,2.40
2024-01-06T05:57:33.141Z,2.30
2024-01-06T06:00:00.769Z,2.30
2024-01-06T06:02:28.356Z,2.30
2024-01-06T06:04:55.478Z,2.30
2024-01-06T06:07:22.172Z,2.30
2024-01-06T06:09:49.278Z,2.20
2024-01-06T06:12:16.689Z,2.30
2024-01-06T06:14:43.360Z,2.30
2024-01-06T06:17:10.477Z,2.30
2024-01-06T06:19:37.273Z,2.30
2024-01-06T06:22:04.857Z,2.40
2024-01-06T06:24:32.330Z,2.40
2024-01-06T06:26:59.518Z,2.40
2024-01-06T06:29:26.238Z,2.40
2024-01-06T06:31:53.488Z,2.40
2024-01-06T06:34:20.323Z,2.40
2024-01-06T06:36:47.485Z,2.40
2024-01-06T06:39:14.755Z,2.30
2024-01-06T06:41:41.907Z,2.30
2024-01-06T06:44:09.009Z,2.30
2024-01-06T06:46:35.735Z,2.30
2024-01-06T06:49:03.051Z,2.30
2024-01-06T06:51:31.525Z,2.30
2024-01-06T06:53:59.626Z,2.20
2024-01-06T06:56:26.751Z,2.20
2024-01-06T06:58:53.716Z,2.20
2024-01-06T07:01:20.932Z,2.20
2024-01-06T07:03:48.614Z,2.20
2024-01-06T07:06:16.975Z,2.20
2024-01-06T07:08:43.728Z,2.20
2024-01-06T07:11:13.088Z,2.30
2024-01-06T07:13:40.916Z,2.30
2024-01-06T07:16:15.396Z,2.30
2024-01-06T07:18:46.252Z,2.30
2024-01-06T07:21:14.126Z,2.30
2024-01-06T07:23:41.333Z,2.30
2024-01-06T07:26:10.269Z,2.30
2024-01-06T07:28:36.978Z,2.30
2024-01-06T07:31:04.332Z,2.30
2024-01-06T07:33:31.629Z,2.30
2024-01-06T07:35:58.323Z,2.30
2024-01-06T07:38:25.184Z,2.40
2024-01-06T07:40:52.292Z,2.40
2024-01-06T07:46:05.226Z,2.40
2024-01-06T07:48:32.469Z,2.50
2024-01-06T07:51:01.241Z,2.60
2024-01-06T07:53:28.365Z,2.60
2024-01-06T07:55:55.046Z,2.60
2024-01-06T07:58:22.859Z,2.70
2024-01-06T08:00:49.714Z,2.70
2024-01-06T08:03:17.950Z,2.80
2024-01-06T08:05:44.771Z,2.80
2024-01-06T08:08:12.121Z,2.90
2024-01-06T08:10:39.270Z,2.90
2024-01-06T08:13:06.021Z,3.00
2024-01-06T08:15:33.551Z,3.00
2024-01-06T08:18:01.053Z,3.00
2024-01-06T08:20:28.654Z,3.10
2024-01-06T08:22:56.023Z,3.20
2024-01-06T08:25:23.175Z,3.30
2024-01-06T08:27:49.856Z,3.40
2024-01-06T08:30:16.854Z,3.40
2024-01-06T08:32:44.219Z,3.50
2024-01-06T08:35:11.126Z,3.50
2024-01-06T08:37:38.396Z,3.60
2024-01-06T08:40:06.049Z,3.60
2024-01-06T08:42:33.471Z,3.80
2024-01-06T08:45:00.373Z,4.00
2024-01-06T08:47:27.623Z,4.30
2024-01-06T08:49:54.866Z,4.50
2024-01-06T08:52:23.363Z,4.50
2024-01-06T08:54:50.705Z,4.40
2024-01-06T08:57:18.167Z,4.50
2024-01-06T08:59:46.388Z,4.50
2024-01-06T09:02:13.839Z,4.60
2024-01-06T09:04:40.988Z,4.60
2024-01-06T09:07:07.719Z,4.60
2024-01-06T09:09:34.992Z,4.70
2024-01-06T09:12:01.756Z,4.70
2024-01-06T09:14:28.428Z,4.80
2024-01-06T09:16:55.799Z,4.80
2024-01-06T09:19:23.600Z,4.80
2024-01-06T09:21:50.437Z,4.80
2024-01-06T09:24:17.861Z,4.80
2024-01-06T09:26:45.461Z,4.80
2024-01-06T09:29:13.376Z,4.90
2024-01-06T09:31:41.998Z,4.90
2024-01-06T09:34:11.216Z,4.90
2024-01-06T09:36:38.720Z,4.90
2024-01-06T09:39:05.956Z,4.90
2024-01-06T09:41:33.666Z,4.90
2024-01-06T09:44:00.440Z,5.00
2024-01-06T09:46:30.580Z,5.00
2024-01-06T09:48:58.865Z,5.00
2024-01-06T09:51:27.600Z,5.10
2024-01-06T09:54:00.499Z,5.30
2024-01-06T09:56:29.669Z,5.40
2024-01-06T09:59:00.050Z,5.50
2024-01-06T10:01:26.907Z,5.40
2024-01-06T10:03:53.858Z,5.40
2024-01-06T10:06:22.506Z,5.40
2024-01-06T10:08:51.093Z,5.40
2024-01-06T10:11:19.965Z,5.50
2024-01-06T10:13:46.715Z,5.40
2024-01-06T10:16:13.837Z,5.40
2024-01-06T10:18:40.836Z,5.30
2024-01-06T10:21:08.186Z,5.30
2024-01-06T10:23:35.188Z,5.30
2024-01-06T10:26:05.563Z,5.30
2024-01-06T10:28:33.621Z,5.30
2024-01-06T10:31:01.321Z,5.30
2024-01-06T10:33:28.247Z,5.30
2024-01-06T10:35:57.498Z,5.40
2024-01-06T10:38:27.114Z,5.50
2024-01-06T10:41:10.109Z,5.60
2024-01-06T10:43:41.475Z,5.60
2024-01-06T10:46:12.276Z,5.70
2024-01-06T10:48:43.881Z,5.70
2024-01-06T10:51:12.017Z,5.80
2024-01-06T10:53:40.497Z,5.90
2024-01-06T10:56:17.681Z,5.90
2024-01-06T10:58:49.417Z,6.00
2024-01-06T11:01:22.279Z,6.20
2024-01-06T11:03:50.888Z,6.30
2024-01-06T11:06:19.440Z,6.30
2024-01-06T11:09:17.870Z,6.30
2024-01-06T11:11:45.534Z,6.40
2024-01-06T11:14:27.070Z,6.60
2024-01-06T11:16:55.797Z,6.70
2024-01-06T11:19:35.160Z,6.90
2024-01-06T11:22:27.828Z,7.10
2024-01-06T11:24:57.549Z,7.20
2024-01-06T11:27:30.519Z,7.20
2024-01-06T11:30:05.609Z,7.20
2024-01-06T11:32:42.513Z,7.30
2024-01-06T11:35:14.651Z,7.40
2024-01-06T11:37:41.333Z,7.40
2024-01-06T11:40:27.556Z,7.30
2024-01-06T11:43:03.714Z,7.20
2024-01-06T11:45:31.196Z,7.20
2024-01-06T11:48:03.964Z,7.20
2024-01-06T11:50:40.259Z,7.00
2024-01-06T11:53:10.939Z,7.10
2024-01-06T11:55:41.000Z,7.00
2024-01-06T11:58:08.398Z,7.00
2024-01-06T12:00:41.970Z,7.00
2024-01-06T12:03:09.777Z,7.00
2024-01-06T12:05:37.393Z,6.90
2024-01-06T12:08:07.684Z,6.90
2024-01-06T12:10:34.684Z,6.80
2024-01-06T12:13:03.660Z,6.80
2024-01-06T12:15:32.835Z,6.80
2024-01-06T12:18:00.456Z,6.80
2024-01-06T12:20:30.563Z,6.90
2024-01-06T12:22:57.529Z,6.90
2024-01-06T12:25:25.446Z,6.90
2024-01-06T12:27:53.809Z,6.80
2024-01-06T12:30:22.395Z,6.90
2024-01-06T12:32:50.664Z,6.90
2024-01-06T12:35:18.077Z,6.90
2024-01-06T12:37:46.139Z,6.90
2024-01-06T12:40:20.843Z,7.00
2024-01-06T12:42:47.741Z,7.00
2024-01-06T12:45:16.792Z,7.20
2024-01-06T12:47:44.718Z,7.30
2024-01-06T12:50:11.683Z,7.60
2024-01-06T12:52:40.755Z,7.90
2024-01-06T12:55:09.421Z,7.90
2024-01-06T12:57:36.670Z,7.80
2024-01-06T13:00:04.489Z,7.60
2024-01-06T13:02:32.079Z,7.50
2024-01-06T13:04:59.756Z,7.40
2024-01-06T13:07:26.851Z,7.30
2024-01-06T13:09:53.808Z,7.20
2024-01-06T13:12:21.733Z,7.10
2024-01-06T13:14:48.570Z,7.10
2024-01-06T13:17:15.840Z,6.90
2024-01-06T13:19:42.747Z,7.00
2024-01-06T13:22:10.286Z,6.90
2024-01-06T13:24:37.114Z,6.90
2024-01-06T13:27:04.363Z,6.90
2024-01-06T13:29:31.235Z,6.80
2024-01-06T13:31:58.493Z,6.80
2024-01-06T13:34:25.959Z,6.80
2024-01-06T13:36:55.209Z,6.90
2024-01-06T13:39:23.571Z,6.70
2024-01-06T13:41:50.869Z,6.90
2024-01-06T13:44:18.301Z,6.90
2024-01-06T13:46:46.050Z,6.90
2024-01-06T13:49:13.810Z,6.90
2024-01-06T13:51:41.521Z,6.90
2024-01-06T13:54:09.032Z,6.80
2024-01-06T13:56:35.994Z,6.70
2024-01-06T13:59:02.700Z,6.70
2024-01-06T14:01:31.004Z,6.50
2024-01-06T14:04:00.846Z,6.40
2024-01-06T14:06:32.101Z,6.30
2024-01-06T14:08:59.840Z,6.20
2024-01-06T14:11:32.292Z,6.10
2024-01-06T14:13:59.993Z,6.00
2024-01-06T14:16:27.280Z,5.90
2024-01-06T14:18:54.155Z,5.70
2024-01-06T14:21:21.529Z,5.60
2024-01-06T14:23:50.493Z,5.50
2024-01-06T14:26:22.982Z,5.50
2024-01-06T14:28:50.043Z,5.50
2024-01-06T14:31:17.132Z,5.40
2024-01-06T14:33:44.497Z,5.40
2024-01-06T14:36:11.262Z,5.30
2024-01-06T14:38:38.480Z,5.30
2024-01-06T14:41:05.215Z,5.10
2024-01-06T14:43:31.946Z,5.00
2024-01-06T14:45:59.415Z,4.90
2024-01-06T14:48:26.317Z,4.90
2024-01-06T14:50:53.066Z,4.80
2024-01-06T14:53:20.135Z,4.60
2024-01-06T14:55:46.788Z,4.50
2024-01-06T14:58:13.903Z,4.40
2024-01-06T15:00:41.028Z,4.20
2024-01-06T15:03:08.169Z,4.20
2024-01-06T15:05:34.946Z,4.00
2024-01-06T15:08:02.100Z,4.00
2024-01-06T15:10:28.788Z,3.80
2024-01-06T15:12:55.488Z,3.70
2024-01-06T15:15:22.321Z,3.70
2024-01-06T15:17:49.056Z,3.60
2024-01-06T15:20:15.855Z,3.40
2024-01-06T15:22:42.880Z,3.40
2024-01-06T15:25:11.241Z,3.20
2024-01-06T15:27:38.506Z,3.10
2024-01-06T15:30:09.558Z,3.00
2024-01-06T15:32:37.482Z,3.00
2024-01-06T15:35:05.109Z,2.90
2024-01-06T15:37:32.469Z,2.80
2024-01-06T15:39:59.636Z,2.70
2024-01-06T15:42:27.479Z,2.70
2024-01-06T15:44:54.216Z,2.60
2024-01-06T15:47:20.894Z,2.50
2024-01-06T15:49:48.021Z,2.50
2024-01-06T15:52:14.781Z,2.50
2024-01-06T15:54:41.854Z,2.40
2024-01-06T15:57:09.598Z,2.30
2024-01-06T15:59:36.270Z,2.30
2024-01-06T16:02:03.825Z,2.30
2024-01-06T16:04:30.652Z,2.20
2024-01-06T16:06:58.203Z,2.20
2024-01-06T16:09:27.266Z,2.20
2024-01-06T16:11:56.829Z,2.10
2024-01-06T16:14:26.630Z,2.10
2024-01-06T16:16:54.353Z,2.20
2024-01-06T16:19:21.714Z,2.20
2024-01-06T16:21:52.552Z,2.20
2024-01-06T16:24:25.163Z,2.20
2024-01-06T16:26:51.875Z,2.20
2024-01-06T16:29:18.536Z,2.20
2024-01-06T16:31:45.657Z,2.20
2024-01-06T16:34:12.582Z,2.20
2024-01-06T16:36:39.341Z,2.20
2024-01-06T16:39:06.475Z,2.20
2024-01-06T16:41:33.512Z,2.20
2024-01-06T16:44:00.351Z,2.20
2024-01-06T16:46:28.032Z,2.20
2024-01-06T16:48:54.849Z,2.20
2024-01-06T16:51:22.070Z,2.20
2024-01-06T16:53:50.651Z,2.20
2024-01-06T16:56:17.364Z,2.20
2024-01-06T16:58:44.571Z,2.20
2024-01-06T17:01:11.455Z,2.20
2024-01-06T17:03:39.332Z,2.20
2024-01-06T17:06:06.206Z,2.20
2024-01-06T17:08:32.952Z,2.20
2024-01-06T17:10:59.619Z,2.30
2024-01-06T17:13:26.296Z,2.30
2024-01-06T17:15:52.965Z,2.30
2024-01-06T17:18:20.239Z,2.30
2024-01-06T17:20:47.064Z,2.40
2024-01-06T17:23:13.748Z,2.40
2024-01-06T17:25:40.720Z,2.40
2024-01-06T17:28:07.432Z,2.50
2024-01-06T17:30:34.710Z,2.50
2024-01-06T17:33:01.914Z,2.50
2024-01-06T17:35:28.554Z,2.50
2024-01-06T17:37:55.197Z,2.50
2024-01-06T17:40:22.249Z,2.50
2024-01-06T17:42:48.993Z,2.60
2024-01-06T17:45:15.734Z,2.60
2024-01-06T17:47:44.429Z,2.60
2024-01-06T17:50:11.502Z,2.60
2024-01-06T17:52:38.205Z,2.60
2024-01-06T17:55:07.857Z,2.60
2024-01-06T17:57:36.012Z,2.60
2024-01-06T18:00:04.219Z,2.60
2024-01-06T18:02:31.269Z,2.70
2024-01-06T18:04:58.477Z,2.70
2024-01-06T18:07:26.271Z,2.70
2024-01-06T18:09:53.394Z,2.70
2024-01-06T18:12:20.098Z,2.60
2024-01-06T18:14:46.815Z,2.60
2024-01-06T18:17:13.574Z,2.60
2024-01-06T18:19:40.343Z,2.60
2024-01-06T18:22:07.087Z,2.60
2024-01-06T18:24:33.833Z,2.60
2024-01-06T18:27:00.479Z,2.50
2024-01-06T18:29:27.504Z,2.50
2024-01-06T18:31:54.256Z,2.50
2024-01-06T18:34:21.085Z,2.50
2024-01-06T18:36:48.422Z,2.50
2024-01-06T18:39:15.145Z,2.40
2024-01-06T18:41:42.356Z,2.40
2024-01-06T18:44:12.282Z,2.40
2024-01-06T18:46:39.408Z,2.40
2024-01-06T18:49:07.399Z,2.40
2024-01-06T18:51:38.512Z,2.50
2024-01-06T18:54:06.503Z,2.50
2024-01-06T18:56:33.311Z,2.50
2024-01-06T18:59:00.990Z,2.50
2024-01-06T19:01:28.901Z,2.50
2024-01-06T19:03:56.152Z,2.40
2024-01-06T19:06:23.682Z,2.40
2024-01-06T19:08:50.348Z,2.40
2024-01-06T19:11:17.186Z,2.40
2024-01-06T19:13:45.229Z,2.30
2024-01-06T19:16:11.901Z,2.30
2024-01-06T19:18:38.666Z,2.30
2024-01-06T19:21:07.887Z,2.30
2024-01-06T19:23:34.578Z,2.30
2024-01-06T19:26:03.459Z,2.20
2024-01-06T19:28:30.128Z,2.20
2024-01-06T19:30:59.943Z,2.20
2024-01-06T19:33:27.238Z,2.30
2024-01-06T19:35:54.145Z,2.30
2024-01-06T19:38:21.151Z,2.30
2024-01-06T19:40:47.820Z,2.30
2024-01-06T19:43:16.185Z,2.30
2024-01-06T19:45:43.657Z,2.30
2024-01-06T19:48:11.101Z,2.20
2024-01-06T19:50:38.562Z,2.20
2024-01-06T19:53:05.216Z,2.20
2024-01-06T19:55:32.523Z,2.20
2024-01-06T19:58:00.300Z,2.20
2024-01-06T20:00:30.288Z,2.20
2024-01-06T20:02:57.487Z,2.10
2024-01-06T20:05:25.549Z,2.20
2024-01-06T20:07:52.259Z,2.10
2024-01-06T20:10:19.771Z,2.10
2024-01-06T20:12:47.740Z,2.10
2024-01-06T20:15:14.504Z,2.10
2024-01-06T20:17:41.610Z,2.20
2024-01-06T20:20:09.801Z,2.20
2024-01-06T20:22:36.496Z,2.10
2024-01-06T20:25:03.721Z,2.20
2024-01-06T20:27:30.539Z,2.20
2024-01-06T20:29:58.108Z,2.20
2024-01-06T20:32:25.049Z,2.20
2024-01-06T20:34:52.353Z,2.30
2024-01-06T20:37:19.729Z,2.30
2024-01-06T20:39:46.398Z,2.30
2024-01-06T20:42:13.099Z,2.30
2024-01-06T20:44:39.800Z,2.40
2024-01-06T20:47:06.484Z,2.40
2024-01-06T20:49:33.253Z,2.40
2024-01-06T20:52:00.096Z,2.50
2024-01-06T20:54:26.819Z,2.50
2024-01-06T20:56:53.996Z,2.50
2024-01-06T20:59:21.062Z,2.50
2024-01-06T21:01:47.940Z,2.60
2024-01-06T21:04:14.641Z,2.60
2024-01-06T21:06:41.709Z,2.70
2024-01-06T21:09:10.190Z,2.60
2024-01-06T21:11:37.551Z,2.70
2024-01-06T21:14:04.945Z,2.70
2024-01-06T21:16:31.643Z,2.70
2024-01-06T21:18:58.367Z,2.70
2024-01-06T21:21:25.900Z,2.70
2024-01-06T21:23:52.547Z,2.70
2024-01-06T21:26:19.190Z,2.70
2024-01-06T21:28:47.869Z,2.60
2024-01-06T21:31:16.003Z,2.60
2024-01-06T21:33:45.172Z,2.60
2024-01-06T21:36:12.922Z,2.70
2024-01-06T21:38:39.552Z,2.70
2024-01-06T21:41:08.267Z,2.70
2024-01-06T21:43:34.958Z,2.70
2024-01-06T21:46:01.718Z,2.70
2024-01-06T21:48:31.432Z,2.70
2024-01-06T21:50:58.959Z,2.70
2024-01-06T21:53:25.589Z,2.80
2024-01-06T21:55:53.918Z,2.80
2024-01-06T21:58:20.600Z,2.80
2024-01-06T22:00:47.356Z,2.90
2024-01-06T22:03:14.102Z,2.90
2024-01-06T22:05:41.018Z,2.90
2024-01-06T22:08:08.244Z,2.90
2024-01-06T22:10:35.360Z,2.90
2024-01-06T22:13:05.535Z,2.90
2024-01-06T22:15:35.934Z,2.90
2024-01-06T22:18:03.723Z,3.00
2024-01-06T22:20:30.480Z,3.00
2024-01-06T22:22:57.998Z,3.00
2024-01-06T22:25:24.792Z,3.10
2024-01-06T22:27:51.521Z,3.10
2024-01-06T22:30:18.517Z,3.10
2024-01-06T22:32:48.535Z,3.10
2024-01-06T22:35:16.061Z,3.10
2024-01-06T22:37:42.775Z,3.10
2024-01-06T22:40:10.037Z,3.10
2024-01-06T22:42:37.177Z,3.10
2024-01-06T22:45:04.588Z,3.20
2024-01-06T22:47:31.318Z,3.20
2024-01-06T22:49:58.021Z,3.20
2024-01-06T22:52:24.670Z,3.20
2024-01-06T22:54:51.343Z,3.20
2024-01-06T22:57:18.449Z,3.20
2024-01-06T22:59:45.101Z,3.20
2024-01-06T23:02:11.750Z,3.20
2024-01-06T23:04:38.787Z,3.20
2024-01-06T23:07:05.628Z,3.10
2024-01-06T23:09:32.400Z,3.10
2024-01-06T23:11:59.442Z,3.10
2024-01-06T23:14:26.116Z,3.10
2024-01-06T23:16:52.835Z,3.10
2024-01-06T23:19:20.007Z,3.10
2024-01-06T23:21:46.816Z,3.10
2024-01-06T23:24:14.324Z,3.10
2024-01-06T23:26:40.968Z,3.10
2024-01-06T23:29:07.734Z,3.10
2024-01-06T23:31:34.748Z,3.00
2024-01-06T23:34:01.627Z,3.00
2024-01-06T23:36:28.548Z,3.00
2024-01-06T23:38:55.532Z,3.00
2024-01-06T23:41:22.594Z,3.00
2024-01-06T23:43:49.293Z,3.00
2024-01-06T23:46:16.959Z,2.90
2024-01-06T23:48:43.660Z,2.90
2024-01-06T23:51:17.764Z,2.80
2024-01-06T23:53:44.816Z,2.80
2024-01-06T23:56:11.476Z,2.80
2024-01-06T23:58:38.418Z,2.80
